Aviation Digital Data Service (ADDS)

Output produced by METARs form (0018 UTC 19 October 2019)
found at http://www.aviationweather.gov/metar/data/
 
METAR text: HSSS 190000Z 18003KT 8000 29/18 Q1009 NOSIG
Conditions at: HSSS (KHARTOUM (CIV/MI, SD) observed 0000 UTC 19 October 2019
Temperature: 29.0°C (84°F)
Dewpoint: 18.0°C (64°F) [RH = 52%]
Pressure (altimeter): 29.79 inches Hg (1009.0 mb)
Winds: from the S (180 degrees) at 3 MPH (3 knots; 1.5 m/s)
Visibility: 5 miles ( 8 km)
Ceiling: unknown
Clouds: missing
Weather: no significant weather observed at this time

METAR text: HSSS 182330Z 18004KT 8000 29/18 Q1009 NOSIG
Conditions at: HSSS (KHARTOUM (CIV/MI, SD) observed 2330 UTC 18 October 2019
Temperature: 29.0°C (84°F)
Dewpoint: 18.0°C (64°F) [RH = 52%]
Pressure (altimeter): 29.79 inches Hg (1009.0 mb)
Winds: from the S (180 degrees) at 5 MPH (4 knots; 2.1 m/s)
Visibility: 5 miles ( 8 km)
Ceiling: unknown
Clouds: missing
Weather: no significant weather observed at this time

METAR text: HSSS 182300Z 17004KT 8000 30/18 Q1009 NOSIG
Conditions at: HSSS (KHARTOUM (CIV/MI, SD) observed 2300 UTC 18 October 2019
Temperature: 30.0°C (86°F)
Dewpoint: 18.0°C (64°F) [RH = 49%]
Pressure (altimeter): 29.79 inches Hg (1009.0 mb)
Winds: from the S (170 degrees) at 5 MPH (4 knots; 2.1 m/s)
Visibility: 5 miles ( 8 km)
Ceiling: unknown
Clouds: missing
Weather: no significant weather observed at this time

METAR text: HSSS 182230Z 17004KT 8000 30/17 Q1009 NOSIG
Conditions at: HSSS (KHARTOUM (CIV/MI, SD) observed 2230 UTC 18 October 2019
Temperature: 30.0°C (86°F)
Dewpoint: 17.0°C (63°F) [RH = 46%]
Pressure (altimeter): 29.79 inches Hg (1009.0 mb)
Winds: from the S (170 degrees) at 5 MPH (4 knots; 2.1 m/s)
Visibility: 5 miles ( 8 km)
Ceiling: unknown
Clouds: missing
Weather: no significant weather observed at this time

METAR text: HSSS 182200Z 18003KT 8000 30/18 Q1010 NOSIG
Conditions at: HSSS (KHARTOUM (CIV/MI, SD) observed 2200 UTC 18 October 2019
Temperature: 30.0°C (86°F)
Dewpoint: 18.0°C (64°F) [RH = 49%]
Pressure (altimeter): 29.82 inches Hg (1010.0 mb)
Winds: from the S (180 degrees) at 3 MPH (3 knots; 1.5 m/s)
Visibility: 5 miles ( 8 km)
Ceiling: unknown
Clouds: missing
Weather: no significant weather observed at this time

METAR text: HSSS 182130Z 15003KT 8000 31/18 Q1010 NOSIG
Conditions at: HSSS (KHARTOUM (CIV/MI, SD) observed 2130 UTC 18 October 2019
Temperature: 31.0°C (88°F)
Dewpoint: 18.0°C (64°F) [RH = 46%]
Pressure (altimeter): 29.82 inches Hg (1010.0 mb)
Winds: from the SSE (150 degrees) at 3 MPH (3 knots; 1.5 m/s)
Visibility: 5 miles ( 8 km)
Ceiling: unknown
Clouds: missing
Weather: no significant weather observed at this time

METAR text: HSSS 182100Z 15004KT 8000 31/18 Q11 0 NOSIG
Conditions at: HSSS (KHARTOUM (CIV/MI, SD) observed 2100 UTC 18 October 2019
Temperature: 31.0°C (88°F)
Dewpoint: 18.0°C (64°F) [RH = 46%]
Pressure (altimeter): missing
Winds: from the SSE (150 degrees) at 5 MPH (4 knots; 2.1 m/s)
Visibility: 5 miles ( 8 km)
Ceiling: unknown
Clouds: missing
Weather: no significant weather observed at this time

METAR text: HSSS 182030Z 15004KT 8000 32/18 Q1010 NOSIG
Conditions at: HSSS (KHARTOUM (CIV/MI, SD) observed 2030 UTC 18 October 2019
Temperature: 32.0°C (90°F)
Dewpoint: 18.0°C (64°F) [RH = 43%]
Pressure (altimeter): 29.82 inches Hg (1010.0 mb)
Winds: from the SSE (150 degrees) at 5 MPH (4 knots; 2.1 m/s)
Visibility: 5 miles ( 8 km)
Ceiling: unknown
Clouds: missing
Weather: no significant weather observed at this time

METAR text: HSSS 182000Z 16003KT 8000 32/18 Q1010 NOSIG
Conditions at: HSSS (KHARTOUM (CIV/MI, SD) observed 2000 UTC 18 October 2019
Temperature: 32.0°C (90°F)
Dewpoint: 18.0°C (64°F) [RH = 43%]
Pressure (altimeter): 29.82 inches Hg (1010.0 mb)
Winds: from the SSE (160 degrees) at 3 MPH (3 knots; 1.5 m/s)
Visibility: 5 miles ( 8 km)
Ceiling: unknown
Clouds: missing
Weather: no significant weather observed at this time

METAR text: HSSS 181930Z 17005KT 6000 32/18 Q1010 NOSIG
Conditions at: HSSS (KHARTOUM (CIV/MI, SD) observed 1930 UTC 18 October 2019
Temperature: 32.0°C (90°F)
Dewpoint: 18.0°C (64°F) [RH = 43%]
Pressure (altimeter): 29.82 inches Hg (1010.0 mb)
Winds: from the S (170 degrees) at 6 MPH (5 knots; 2.6 m/s)
Visibility: 4 miles ( 6 km)
Ceiling: unknown
Clouds: missing
Weather: no significant weather observed at this time

METAR text: HSSS 181900Z 17003KT 6000 32/18 Q1010 NOSIG
Conditions at: HSSS (KHARTOUM (CIV/MI, SD) observed 1900 UTC 18 October 2019
Temperature: 32.0°C (90°F)
Dewpoint: 18.0°C (64°F) [RH = 43%]
Pressure (altimeter): 29.82 inches Hg (1010.0 mb)
Winds: from the S (170 degrees) at 3 MPH (3 knots; 1.5 m/s)
Visibility: 4 miles ( 6 km)
Ceiling: unknown
Clouds: missing
Weather: no significant weather observed at this time

METAR text: HSSS 181830Z 18003KT 6000 32/18 Q1010 NOSIG
Conditions at: HSSS (KHARTOUM (CIV/MI, SD) observed 1830 UTC 18 October 2019
Temperature: 32.0°C (90°F)
Dewpoint: 18.0°C (64°F) [RH = 43%]
Pressure (altimeter): 29.82 inches Hg (1010.0 mb)
Winds: from the S (180 degrees) at 3 MPH (3 knots; 1.5 m/s)
Visibility: 4 miles ( 6 km)
Ceiling: unknown
Clouds: missing
Weather: no significant weather observed at this time

METAR text: HSSS 181800Z 18003KT 6000 33/18 Q1010 NOSIG
Conditions at: HSSS (KHARTOUM (CIV/MI, SD) observed 1800 UTC 18 October 2019
Temperature: 33.0°C (91°F)
Dewpoint: 18.0°C (64°F) [RH = 41%]
Pressure (altimeter): 29.82 inches Hg (1010.0 mb)
Winds: from the S (180 degrees) at 3 MPH (3 knots; 1.5 m/s)
Visibility: 4 miles ( 6 km)
Ceiling: unknown
Clouds: missing
Weather: no significant weather observed at this time

METAR text: HSSS 181730Z 21003KT 4000 HZ 33/19 Q1010 NOSIG
Conditions at: HSSS (KHARTOUM (CIV/MI, SD) observed 1730 UTC 18 October 2019
Temperature: 33.0°C (91°F)
Dewpoint: 19.0°C (66°F) [RH = 44%]
Pressure (altimeter): 29.82 inches Hg (1010.0 mb)
Winds: from the SSW (210 degrees) at 3 MPH (3 knots; 1.5 m/s)
Visibility: 2.49 miles (4.01 km)
Ceiling: unknown
Clouds: missing
Weather: HZ  (haze)

METAR text: HSSS 181700Z 22002KT 4 Q C MS -+ - 6L 9 NOSIG
Conditions at: HSSS (KHARTOUM (CIV/MI, SD) observed 1700 UTC 18 October 2019
Temperature: missing
Dewpoint: missing
Pressure (altimeter): missing
Winds: from the SW (220 degrees) at 2 MPH (2 knots; 1.0 m/s)
Visibility: missing
Ceiling: unknown
Clouds: missing
Weather: no significant weather observed at this time

METAR text: HSSS 181630Z 24002KT 4000 HZ 33/18 Q1009 NOSIG
Conditions at: HSSS (KHARTOUM (CIV/MI, SD) observed 1630 UTC 18 October 2019
Temperature: 33.0°C (91°F)
Dewpoint: 18.0°C (64°F) [RH = 41%]
Pressure (altimeter): 29.79 inches Hg (1009.0 mb)
Winds: from the WSW (240 degrees) at 2 MPH (2 knots; 1.0 m/s)
Visibility: 2.49 miles (4.01 km)
Ceiling: unknown
Clouds: missing
Weather: HZ  (haze)

METAR text: HSSS 181600Z 24004KT 4000 HZ 34/17 Q1009 NOSIG
Conditions at: HSSS (KHARTOUM (CIV/MI, SD) observed 1600 UTC 18 October 2019
Temperature: 34.0°C (93°F)
Dewpoint: 17.0°C (63°F) [RH = 36%]
Pressure (altimeter): 29.79 inches Hg (1009.0 mb)
Winds: from the WSW (240 degrees) at 5 MPH (4 knots; 2.1 m/s)
Visibility: 2.49 miles (4.01 km)
Ceiling: unknown
Clouds: missing
Weather: HZ  (haze)

METAR text: HSSS 181530Z 21005KT 3000 HZ 34/17 Q1008 NOSIG
Conditions at: HSSS (KHARTOUM (CIV/MI, SD) observed 1530 UTC 18 October 2019
Temperature: 34.0°C (93°F)
Dewpoint: 17.0°C (63°F) [RH = 36%]
Pressure (altimeter): 29.76 inches Hg (1008.0 mb)
Winds: from the SSW (210 degrees) at 6 MPH (5 knots; 2.6 m/s)
Visibility: 1.86 miles (2.99 km)
Ceiling: unknown
Clouds: missing
Weather: HZ  (haze)

METAR text: HSSS 181500Z 21005KT 3000 HZ 34/17 Q1008 NOSIG
Conditions at: HSSS (KHARTOUM (CIV/MI, SD) observed 1500 UTC 18 October 2019
Temperature: 34.0°C (93°F)
Dewpoint: 17.0°C (63°F) [RH = 36%]
Pressure (altimeter): 29.76 inches Hg (1008.0 mb)
Winds: from the SSW (210 degrees) at 6 MPH (5 knots; 2.6 m/s)
Visibility: 1.86 miles (2.99 km)
Ceiling: unknown
Clouds: missing
Weather: HZ  (haze)

METAR text: HSSS 181430Z 18005KT 3000 HZ 34/17 Q1008 NOSIG
Conditions at: HSSS (KHARTOUM (CIV/MI, SD) observed 1430 UTC 18 October 2019
Temperature: 34.0°C (93°F)
Dewpoint: 17.0°C (63°F) [RH = 36%]
Pressure (altimeter): 29.76 inches Hg (1008.0 mb)
Winds: from the S (180 degrees) at 6 MPH (5 knots; 2.6 m/s)
Visibility: 1.86 miles (2.99 km)
Ceiling: unknown
Clouds: missing
Weather: HZ  (haze)

METAR text: HSSS 181400Z 16005KT 3000 HZ 34/17 Q1008 NOSIG
Conditions at: HSSS (KHARTOUM (CIV/MI, SD) observed 1400 UTC 18 October 2019
Temperature: 34.0°C (93°F)
Dewpoint: 17.0°C (63°F) [RH = 36%]
Pressure (altimeter): 29.76 inches Hg (1008.0 mb)
Winds: from the SSE (160 degrees) at 6 MPH (5 knots; 2.6 m/s)
Visibility: 1.86 miles (2.99 km)
Ceiling: unknown
Clouds: missing
Weather: HZ  (haze)

METAR text: HSSS 181300Z 16004KT 3000 HZ 35/18 Q1008 NOSIG
Conditions at: HSSS (KHARTOUM (CIV/MI, SD) observed 1300 UTC 18 October 2019
Temperature: 35.0°C (95°F)
Dewpoint: 18.0°C (64°F) [RH = 37%]
Pressure (altimeter): 29.76 inches Hg (1008.0 mb)
Winds: from the SSE (160 degrees) at 5 MPH (4 knots; 2.1 m/s)
Visibility: 1.86 miles (2.99 km)
Ceiling: unknown
Clouds: missing
Weather: HZ  (haze)

METAR text: HSSS 181230Z 16005KT 3000 HZ 34/18 Q1008 TEMPO 4000 BLDU
Conditions at: HSSS (KHARTOUM (CIV/MI, SD) observed 1230 UTC 18 October 2019
Temperature: 34.0°C (93°F)
Dewpoint: 18.0°C (64°F) [RH = 39%]
Pressure (altimeter): 29.76 inches Hg (1008.0 mb)
Winds: from the SSE (160 degrees) at 6 MPH (5 knots; 2.6 m/s)
Visibility: 1.86 miles (2.99 km)
Ceiling: unknown
Clouds: missing
Weather: HZ  (haze)

METAR text: HSSS 181200Z 20008KT 1500M HZ 35/18 Q1009 NOSIG
Conditions at: HSSS (KHARTOUM (CIV/MI, SD) observed 1200 UTC 18 October 2019
Temperature: 35.0°C (95°F)
Dewpoint: 18.0°C (64°F) [RH = 37%]
Pressure (altimeter): 29.79 inches Hg (1009.0 mb)
Winds: from the SSW (200 degrees) at 9 MPH (8 knots; 4.1 m/s)
Visibility: 0.93 miles (1.50 km)
Ceiling: unknown
Clouds: missing
Weather: HZ  (haze)

METAR text: HSSS 181130Z 21008KT 1500M HZ 35/19 Q1009 NOSIG
Conditions at: HSSS (KHARTOUM (CIV/MI, SD) observed 1130 UTC 18 October 2019
Temperature: 35.0°C (95°F)
Dewpoint: 19.0°C (66°F) [RH = 39%]
Pressure (altimeter): 29.79 inches Hg (1009.0 mb)
Winds: from the SSW (210 degrees) at 9 MPH (8 knots; 4.1 m/s)
Visibility: 0.93 miles (1.50 km)
Ceiling: unknown
Clouds: missing
Weather: HZ  (haze)

METAR text: HSSS 181100Z 18010KT 1500M HZ 34/19 Q1009 NOSIG
Conditions at: HSSS (KHARTOUM (CIV/MI, SD) observed 1100 UTC 18 October 2019
Temperature: 34.0°C (93°F)
Dewpoint: 19.0°C (66°F) [RH = 41%]
Pressure (altimeter): 29.79 inches Hg (1009.0 mb)
Winds: from the S (180 degrees) at 12 MPH (10 knots; 5.1 m/s)
Visibility: 0.93 miles (1.50 km)
Ceiling: unknown
Clouds: missing
Weather: HZ  (haze)

METAR text: HSSS 181030Z 18010KT 1500M HZ 34/19 Q1010 NOSIG
Conditions at: HSSS (KHARTOUM (CIV/MI, SD) observed 1030 UTC 18 October 2019
Temperature: 34.0°C (93°F)
Dewpoint: 19.0°C (66°F) [RH = 41%]
Pressure (altimeter): 29.82 inches Hg (1010.0 mb)
Winds: from the S (180 degrees) at 12 MPH (10 knots; 5.1 m/s)
Visibility: 0.93 miles (1.50 km)
Ceiling: unknown
Clouds: missing
Weather: HZ  (haze)

METAR text: HSSS 181000Z 18013KT 2500M BLDU 34/19 Q1011 TEMPO 1500M BLDU
Conditions at: HSSS (KHARTOUM (CIV/MI, SD) observed 1000 UTC 18 October 2019
Temperature: 34.0°C (93°F)
Dewpoint: 19.0°C (66°F) [RH = 41%]
Pressure (altimeter): 29.85 inches Hg (1011.0 mb)
Winds: from the S (180 degrees) at 15 MPH (13 knots; 6.7 m/s)
Visibility: 1.55 miles (2.49 km)
Ceiling: unknown
Clouds: missing
Weather: BLDU  (blowing dust)

METAR text: HSSS 180930Z 18012KT 4000M BLDU 33/19 Q1011 NOSIG
Conditions at: HSSS (KHARTOUM (CIV/MI, SD) observed 0930 UTC 18 October 2019
Temperature: 33.0°C (91°F)
Dewpoint: 19.0°C (66°F) [RH = 44%]
Pressure (altimeter): 29.85 inches Hg (1011.0 mb)
Winds: from the S (180 degrees) at 14 MPH (12 knots; 6.2 m/s)
Visibility: 2.49 miles (4.01 km)
Ceiling: unknown
Clouds: missing
Weather: BLDU  (blowing dust)

METAR text: HSSS 180900Z 18013KT 4000M BLDU 32/20 Q1012 TEMPO 6000
Conditions at: HSSS (KHARTOUM (CIV/MI, SD) observed 0900 UTC 18 October 2019
Temperature: 32.0°C (90°F)
Dewpoint: 20.0°C (68°F) [RH = 49%]
Pressure (altimeter): 29.88 inches Hg (1012.0 mb)
Winds: from the S (180 degrees) at 15 MPH (13 knots; 6.7 m/s)
Visibility: 2.49 miles (4.01 km)
Ceiling: unknown
Clouds: missing
Weather: BLDU  (blowing dust)

METAR text: HSSS 180830Z 17014KT 4000M BLDU 32/21 Q1012 NOSIG
Conditions at: HSSS (KHARTOUM (CIV/MI, SD) observed 0830 UTC 18 October 2019
Temperature: 32.0°C (90°F)
Dewpoint: 21.0°C (70°F) [RH = 52%]
Pressure (altimeter): 29.88 inches Hg (1012.0 mb)
Winds: from the S (170 degrees) at 16 MPH (14 knots; 7.2 m/s)
Visibility: 2.49 miles (4.01 km)
Ceiling: unknown
Clouds: missing
Weather: BLDU  (blowing dust)

METAR text: HSSS 180800Z 16014KT 2500M BLDU 31/21 Q1012 NOSIG
Conditions at: HSSS (KHARTOUM (CIV/MI, SD) observed 0800 UTC 18 October 2019
Temperature: 31.0°C (88°F)
Dewpoint: 21.0°C (70°F) [RH = 55%]
Pressure (altimeter): 29.88 inches Hg (1012.0 mb)
Winds: from the SSE (160 degrees) at 16 MPH (14 knots; 7.2 m/s)
Visibility: 1.55 miles (2.49 km)
Ceiling: unknown
Clouds: missing
Weather: BLDU  (blowing dust)

METAR text: HSSS 180730Z 15018G28KT 1000M BLDU 29/22 Q1013 TEMPO 2000M BLDU
Conditions at: HSSS (KHARTOUM (CIV/MI, SD) observed 0730 UTC 18 October 2019
Temperature: 29.0°C (84°F)
Dewpoint: 22.0°C (72°F) [RH = 66%]
Pressure (altimeter): 29.91 inches Hg (1013.0 mb)
Winds: from the SSE (150 degrees) at 21 MPH (18 knots; 9.3 m/s)
gusting to 32 MPH (28 knots; 14.4 m/s)
Visibility: 0.62 miles (1.00 km)
Ceiling: unknown
Clouds: missing
Weather: BLDU  (blowing dust)

METAR text: HSSS 180700Z 15016KT 0500M DS 29/22 Q1013 NOSIG
Conditions at: HSSS (KHARTOUM (CIV/MI, SD) observed 0700 UTC 18 October 2019
Temperature: 29.0°C (84°F)
Dewpoint: 22.0°C (72°F) [RH = 66%]
Pressure (altimeter): 29.91 inches Hg (1013.0 mb)
Winds: from the SSE (150 degrees) at 18 MPH (16 knots; 8.2 m/s)
Visibility: 0.31 miles (0.50 km)
Ceiling: unknown
Clouds: missing
Weather: DS  (duststorm)

METAR text: HSSS 180630Z 12016KT 0800M DS 29/21 Q1013 TEMPO 0500M DS
Conditions at: HSSS (KHARTOUM (CIV/MI, SD) observed 0630 UTC 18 October 2019
Temperature: 29.0°C (84°F)
Dewpoint: 21.0°C (70°F) [RH = 62%]
Pressure (altimeter): 29.91 inches Hg (1013.0 mb)
Winds: from the ESE (120 degrees) at 18 MPH (16 knots; 8.2 m/s)
Visibility: 0.50 miles (0.80 km)
Ceiling: unknown
Clouds: missing
Weather: DS  (duststorm)

METAR text: HSSS 180600Z 18007KT 0800 HZ 30/19 Q1012 NOSIG
Conditions at: HSSS (KHARTOUM (CIV/MI, SD) observed 0600 UTC 18 October 2019
Temperature: 30.0°C (86°F)
Dewpoint: 19.0°C (66°F) [RH = 52%]
Pressure (altimeter): 29.88 inches Hg (1012.0 mb)
Winds: from the S (180 degrees) at 8 MPH (7 knots; 3.6 m/s)
Visibility: 0.50 miles (0.80 km)
Ceiling: unknown
Clouds: missing
Weather: HZ  (haze)

METAR text: HSSS 180500Z 18006KT 0800 HZ 29/18 Q1012 NOSIG
Conditions at: HSSS (KHARTOUM (CIV/MI, SD) observed 0500 UTC 18 October 2019
Temperature: 29.0°C (84°F)
Dewpoint: 18.0°C (64°F) [RH = 52%]
Pressure (altimeter): 29.88 inches Hg (1012.0 mb)
Winds: from the S (180 degrees) at 7 MPH (6 knots; 3.1 m/s)
Visibility: 0.50 miles (0.80 km)
Ceiling: unknown
Clouds: missing
Weather: HZ  (haze)

METAR text: HSSS 180430Z 17008KT 0800 HZ 29/19 Q1012 TEMPO 500 DU
Conditions at: HSSS (KHARTOUM (CIV/MI, SD) observed 0430 UTC 18 October 2019
Temperature: 29.0°C (84°F)
Dewpoint: 19.0°C (66°F) [RH = 55%]
Pressure (altimeter): 29.88 inches Hg (1012.0 mb)
Winds: from the S (170 degrees) at 9 MPH (8 knots; 4.1 m/s)
Visibility: 0.50 miles (0.80 km)
Ceiling: unknown
Clouds: missing
Weather: HZ  (haze)

METAR text: HSSS 180408Z 16009KT 3000 HZ 29/19 Q1012 TEMPO 1500 HZ
Conditions at: HSSS (KHARTOUM (CIV/MI, SD) observed 0408 UTC 18 October 2019
Temperature: 29.0°C (84°F)
Dewpoint: 19.0°C (66°F) [RH = 55%]
Pressure (altimeter): 29.88 inches Hg (1012.0 mb)
Winds: from the SSE (160 degrees) at 10 MPH (9 knots; 4.6 m/s)
Visibility: 1.86 miles (2.99 km)
Ceiling: unknown
Clouds: missing
Weather: HZ  (haze)

METAR text: HSSS 180400Z 16009KT 3000 HZ 29/19 Q1012 TEMPO 1500 HZ
Conditions at: HSSS (KHARTOUM (CIV/MI, SD) observed 0400 UTC 18 October 2019
Temperature: 29.0°C (84°F)
Dewpoint: 19.0°C (66°F) [RH = 55%]
Pressure (altimeter): 29.88 inches Hg (1012.0 mb)
Winds: from the SSE (160 degrees) at 10 MPH (9 knots; 4.6 m/s)
Visibility: 1.86 miles (2.99 km)
Ceiling: unknown
Clouds: missing
Weather: HZ  (haze)

METAR text: HSSS 180330Z 17007KT 6000 29/19 Q1011 NOSIG
Conditions at: HSSS (KHARTOUM (CIV/MI, SD) observed 0330 UTC 18 October 2019
Temperature: 29.0°C (84°F)
Dewpoint: 19.0°C (66°F) [RH = 55%]
Pressure (altimeter): 29.85 inches Hg (1011.0 mb)
Winds: from the S (170 degrees) at 8 MPH (7 knots; 3.6 m/s)
Visibility: 4 miles ( 6 km)
Ceiling: unknown
Clouds: missing
Weather: no significant weather observed at this time

METAR text: HSSS 180300Z 17004KT 6000 29/18 Q1010 NOSIG
Conditions at: HSSS (KHARTOUM (CIV/MI, SD) observed 0300 UTC 18 October 2019
Temperature: 29.0°C (84°F)
Dewpoint: 18.0°C (64°F) [RH = 52%]
Pressure (altimeter): 29.82 inches Hg (1010.0 mb)
Winds: from the S (170 degrees) at 5 MPH (4 knots; 2.1 m/s)
Visibility: 4 miles ( 6 km)
Ceiling: unknown
Clouds: missing
Weather: no significant weather observed at this time

METAR text: HSSS 180230Z 17005KT 6000 30/19 Q1010 NOSIG
Conditions at: HSSS (KHARTOUM (CIV/MI, SD) observed 0230 UTC 18 October 2019
Temperature: 30.0°C (86°F)
Dewpoint: 19.0°C (66°F) [RH = 52%]
Pressure (altimeter): 29.82 inches Hg (1010.0 mb)
Winds: from the S (170 degrees) at 6 MPH (5 knots; 2.6 m/s)
Visibility: 4 miles ( 6 km)
Ceiling: unknown
Clouds: missing
Weather: no significant weather observed at this time

METAR text: HSSS 180200Z 18005KT 6000 30/19 Q1010 NOSIG
Conditions at: HSSS (KHARTOUM (CIV/MI, SD) observed 0200 UTC 18 October 2019
Temperature: 30.0°C (86°F)
Dewpoint: 19.0°C (66°F) [RH = 52%]
Pressure (altimeter): 29.82 inches Hg (1010.0 mb)
Winds: from the S (180 degrees) at 6 MPH (5 knots; 2.6 m/s)
Visibility: 4 miles ( 6 km)
Ceiling: unknown
Clouds: missing
Weather: no significant weather observed at this time

METAR text: HSSS 180130Z 18004KT 6000 30/19 Q1010 NOSIG
Conditions at: HSSS (KHARTOUM (CIV/MI, SD) observed 0130 UTC 18 October 2019
Temperature: 30.0°C (86°F)
Dewpoint: 19.0°C (66°F) [RH = 52%]
Pressure (altimeter): 29.82 inches Hg (1010.0 mb)
Winds: from the S (180 degrees) at 5 MPH (4 knots; 2.1 m/s)
Visibility: 4 miles ( 6 km)
Ceiling: unknown
Clouds: missing
Weather: no significant weather observed at this time

METAR text: HSSS 180100Z 17005KT 6000 30/19 Q1010 NOSIG
Conditions at: HSSS (KHARTOUM (CIV/MI, SD) observed 0100 UTC 18 October 2019
Temperature: 30.0°C (86°F)
Dewpoint: 19.0°C (66°F) [RH = 52%]
Pressure (altimeter): 29.82 inches Hg (1010.0 mb)
Winds: from the S (170 degrees) at 6 MPH (5 knots; 2.6 m/s)
Visibility: 4 miles ( 6 km)
Ceiling: unknown
Clouds: missing
Weather: no significant weather observed at this time

METAR text: HSSS 180030Z 14003KT 3000M HZ 31/19 Q1010 TEMPO 6000
Conditions at: HSSS (KHARTOUM (CIV/MI, SD) observed 0030 UTC 18 October 2019
Temperature: 31.0°C (88°F)
Dewpoint: 19.0°C (66°F) [RH = 49%]
Pressure (altimeter): 29.82 inches Hg (1010.0 mb)
Winds: from the SE (140 degrees) at 3 MPH (3 knots; 1.5 m/s)
Visibility: 1.86 miles (2.99 km)
Ceiling: unknown
Clouds: missing
Weather: HZ  (haze)

METAR text: HSSS 180000Z 18005KT 3000M HZ 31/19 Q1010 NOSIG
Conditions at: HSSS (KHARTOUM (CIV/MI, SD) observed 0000 UTC 18 October 2019
Temperature: 31.0°C (88°F)
Dewpoint: 19.0°C (66°F) [RH = 49%]
Pressure (altimeter): 29.82 inches Hg (1010.0 mb)
Winds: from the S (180 degrees) at 6 MPH (5 knots; 2.6 m/s)
Visibility: 1.86 miles (2.99 km)
Ceiling: unknown
Clouds: missing
Weather: HZ  (haze)

METAR text: HSSS 172330Z 17005KT 3000M HZ 32/15 Q1010 NOSIG
Conditions at: HSSS (KHARTOUM (CIV/MI, SD) observed 2330 UTC 17 October 2019
Temperature: 32.0°C (90°F)
Dewpoint: 15.0°C (59°F) [RH = 36%]
Pressure (altimeter): 29.82 inches Hg (1010.0 mb)
Winds: from the S (170 degrees) at 6 MPH (5 knots; 2.6 m/s)
Visibility: 1.86 miles (2.99 km)
Ceiling: unknown
Clouds: missing
Weather: HZ  (haze)

METAR text: HSSS 172300Z 21009KT 2000M HZ 32/15 Q1009 NOSIG
Conditions at: HSSS (KHARTOUM (CIV/MI, SD) observed 2300 UTC 17 October 2019
Temperature: 32.0°C (90°F)
Dewpoint: 15.0°C (59°F) [RH = 36%]
Pressure (altimeter): 29.79 inches Hg (1009.0 mb)
Winds: from the SSW (210 degrees) at 10 MPH (9 knots; 4.6 m/s)
Visibility: 1.24 miles (2.00 km)
Ceiling: unknown
Clouds: missing
Weather: HZ  (haze)

METAR text: HSSS 172230Z 18008KT 2000M HZ 32/15 Q1010 NOSIG
Conditions at: HSSS (KHARTOUM (CIV/MI, SD) observed 2230 UTC 17 October 2019
Temperature: 32.0°C (90°F)
Dewpoint: 15.0°C (59°F) [RH = 36%]
Pressure (altimeter): 29.82 inches Hg (1010.0 mb)
Winds: from the S (180 degrees) at 9 MPH (8 knots; 4.1 m/s)
Visibility: 1.24 miles (2.00 km)
Ceiling: unknown
Clouds: missing
Weather: HZ  (haze)

METAR text: HSSS 172200Z 20007KT 2000M HZ 32/15 Q1010 NOSIG
Conditions at: HSSS (KHARTOUM (CIV/MI, SD) observed 2200 UTC 17 October 2019
Temperature: 32.0°C (90°F)
Dewpoint: 15.0°C (59°F) [RH = 36%]
Pressure (altimeter): 29.82 inches Hg (1010.0 mb)
Winds: from the SSW (200 degrees) at 8 MPH (7 knots; 3.6 m/s)
Visibility: 1.24 miles (2.00 km)
Ceiling: unknown
Clouds: missing
Weather: HZ  (haze)

METAR text: HSSS 172130Z 18006KT 2000M HZ 33/14 Q1010 NOSIG
Conditions at: HSSS (KHARTOUM (CIV/MI, SD) observed 2130 UTC 17 October 2019
Temperature: 33.0°C (91°F)
Dewpoint: 14.0°C (57°F) [RH = 32%]
Pressure (altimeter): 29.82 inches Hg (1010.0 mb)
Winds: from the S (180 degrees) at 7 MPH (6 knots; 3.1 m/s)
Visibility: 1.24 miles (2.00 km)
Ceiling: unknown
Clouds: missing
Weather: HZ  (haze)

METAR text: HSSS 172100Z 19008KT 2000M HZ 33/14 Q1010 NOSIG
Conditions at: HSSS (KHARTOUM (CIV/MI, SD) observed 2100 UTC 17 October 2019
Temperature: 33.0°C (91°F)
Dewpoint: 14.0°C (57°F) [RH = 32%]
Pressure (altimeter): 29.82 inches Hg (1010.0 mb)
Winds: from the S (190 degrees) at 9 MPH (8 knots; 4.1 m/s)
Visibility: 1.24 miles (2.00 km)
Ceiling: unknown
Clouds: missing
Weather: HZ  (haze)

METAR text: HSSS 172030Z 18007KT 2000M HZ 33/14 Q1010 NOSIG
Conditions at: HSSS (KHARTOUM (CIV/MI, SD) observed 2030 UTC 17 October 2019
Temperature: 33.0°C (91°F)
Dewpoint: 14.0°C (57°F) [RH = 32%]
Pressure (altimeter): 29.82 inches Hg (1010.0 mb)
Winds: from the S (180 degrees) at 8 MPH (7 knots; 3.6 m/s)
Visibility: 1.24 miles (2.00 km)
Ceiling: unknown
Clouds: missing
Weather: HZ  (haze)

METAR text: HSSS 172000Z 16009KT 2000M HZ 33/14 Q1011 NOSIG
Conditions at: HSSS (KHARTOUM (CIV/MI, SD) observed 2000 UTC 17 October 2019
Temperature: 33.0°C (91°F)
Dewpoint: 14.0°C (57°F) [RH = 32%]
Pressure (altimeter): 29.85 inches Hg (1011.0 mb)
Winds: from the SSE (160 degrees) at 10 MPH (9 knots; 4.6 m/s)
Visibility: 1.24 miles (2.00 km)
Ceiling: unknown
Clouds: missing
Weather: HZ  (haze)

METAR text: HSSS 171930Z 17008KT 2000M HZ 34/15 Q1011 NOSIG
Conditions at: HSSS (KHARTOUM (CIV/MI, SD) observed 1930 UTC 17 October 2019
Temperature: 34.0°C (93°F)
Dewpoint: 15.0°C (59°F) [RH = 32%]
Pressure (altimeter): 29.85 inches Hg (1011.0 mb)
Winds: from the S (170 degrees) at 9 MPH (8 knots; 4.1 m/s)
Visibility: 1.24 miles (2.00 km)
Ceiling: unknown
Clouds: missing
Weather: HZ  (haze)

METAR text: HSSS 171900Z 18009KT 2000M HZ 34/15 Q1010 NOSIG
Conditions at: HSSS (KHARTOUM (CIV/MI, SD) observed 1900 UTC 17 October 2019
Temperature: 34.0°C (93°F)
Dewpoint: 15.0°C (59°F) [RH = 32%]
Pressure (altimeter): 29.82 inches Hg (1010.0 mb)
Winds: from the S (180 degrees) at 10 MPH (9 knots; 4.6 m/s)
Visibility: 1.24 miles (2.00 km)
Ceiling: unknown
Clouds: missing
Weather: HZ  (haze)

METAR text: HSSS 171830Z 16009KT 1000M HZ 34/15 Q1010 NOSIG
Conditions at: HSSS (KHARTOUM (CIV/MI, SD) observed 1830 UTC 17 October 2019
Temperature: 34.0°C (93°F)
Dewpoint: 15.0°C (59°F) [RH = 32%]
Pressure (altimeter): 29.82 inches Hg (1010.0 mb)
Winds: from the SSE (160 degrees) at 10 MPH (9 knots; 4.6 m/s)
Visibility: 0.62 miles (1.00 km)
Ceiling: unknown
Clouds: missing
Weather: HZ  (haze)

METAR text: HSSS 171800Z 14009KT 1000M HZ 35/15 Q1010 NOSIG
Conditions at: HSSS (KHARTOUM (CIV/MI, SD) observed 1800 UTC 17 October 2019
Temperature: 35.0°C (95°F)
Dewpoint: 15.0°C (59°F) [RH = 30%]
Pressure (altimeter): 29.82 inches Hg (1010.0 mb)
Winds: from the SE (140 degrees) at 10 MPH (9 knots; 4.6 m/s)
Visibility: 0.62 miles (1.00 km)
Ceiling: unknown
Clouds: missing
Weather: HZ  (haze)

METAR text: HSSS 171730Z 15008KT 1000M HZ 35/14 Q1010 NOSIG
Conditions at: HSSS (KHARTOUM (CIV/MI, SD) observed 1730 UTC 17 October 2019
Temperature: 35.0°C (95°F)
Dewpoint: 14.0°C (57°F) [RH = 28%]
Pressure (altimeter): 29.82 inches Hg (1010.0 mb)
Winds: from the SSE (150 degrees) at 9 MPH (8 knots; 4.1 m/s)
Visibility: 0.62 miles (1.00 km)
Ceiling: unknown
Clouds: missing
Weather: HZ  (haze)

METAR text: HSSS 171715Z 16008KT 1000M HZ 35/14 Q1010 NOSIG
Conditions at: HSSS (KHARTOUM (CIV/MI, SD) observed 1715 UTC 17 October 2019
Temperature: 35.0°C (95°F)
Dewpoint: 14.0°C (57°F) [RH = 28%]
Pressure (altimeter): 29.82 inches Hg (1010.0 mb)
Winds: from the SSE (160 degrees) at 9 MPH (8 knots; 4.1 m/s)
Visibility: 0.62 miles (1.00 km)
Ceiling: unknown
Clouds: missing
Weather: HZ  (haze)

METAR text: HSSS 171700Z 16008KT 2000M HZ 35/13 Q1009 NOSIG
Conditions at: HSSS (KHARTOUM (CIV/MI, SD) observed 1700 UTC 17 October 2019
Temperature: 35.0°C (95°F)
Dewpoint: 13.0°C (55°F) [RH = 27%]
Pressure (altimeter): 29.79 inches Hg (1009.0 mb)
Winds: from the SSE (160 degrees) at 9 MPH (8 knots; 4.1 m/s)
Visibility: 1.24 miles (2.00 km)
Ceiling: unknown
Clouds: missing
Weather: HZ  (haze)

METAR text: HSSS 171640Z 16007KT 2000M BLDU 35/13 Q1009 TEMPO 1500M SS
Conditions at: HSSS (KHARTOUM (CIV/MI, SD) observed 1640 UTC 17 October 2019
Temperature: 35.0°C (95°F)
Dewpoint: 13.0°C (55°F) [RH = 27%]
Pressure (altimeter): 29.79 inches Hg (1009.0 mb)
Winds: from the SSE (160 degrees) at 8 MPH (7 knots; 3.6 m/s)
Visibility: 1.24 miles (2.00 km)
Ceiling: unknown
Clouds: missing
Weather: BLDU  (blowing dust)

METAR text: HSSS 171630Z 17006KT CAVOK 35/13 Q1009 NOSIG
Conditions at: HSSS (KHARTOUM (CIV/MI, SD) observed 1630 UTC 17 October 2019
Temperature: 35.0°C (95°F)
Dewpoint: 13.0°C (55°F) [RH = 27%]
Pressure (altimeter): 29.79 inches Hg (1009.0 mb)
Winds: from the S (170 degrees) at 7 MPH (6 knots; 3.1 m/s)
Visibility: 6 or more miles (10+ km)
Ceiling: ceiling and visibility are OK
Clouds: unknown
Weather: no significant weather observed at this time

METAR text: HSSS 171600Z 17005KT CAVOK 35/12 Q1009 NOSIG
Conditions at: HSSS (KHARTOUM (CIV/MI, SD) observed 1600 UTC 17 October 2019
Temperature: 35.0°C (95°F)
Dewpoint: 12.0°C (54°F) [RH = 25%]
Pressure (altimeter): 29.79 inches Hg (1009.0 mb)
Winds: from the S (170 degrees) at 6 MPH (5 knots; 2.6 m/s)
Visibility: 6 or more miles (10+ km)
Ceiling: ceiling and visibility are OK
Clouds: unknown
Weather: no significant weather observed at this time

METAR text: HSSS 171530Z 16005KT CAVOK 36/12 Q1008 NOSIG
Conditions at: HSSS (KHARTOUM (CIV/MI, SD) observed 1530 UTC 17 October 2019
Temperature: 36.0°C (97°F)
Dewpoint: 12.0°C (54°F) [RH = 24%]
Pressure (altimeter): 29.76 inches Hg (1008.0 mb)
Winds: from the SSE (160 degrees) at 6 MPH (5 knots; 2.6 m/s)
Visibility: 6 or more miles (10+ km)
Ceiling: ceiling and visibility are OK
Clouds: unknown
Weather: no significant weather observed at this time

METAR text: HSSS 171500Z 16007KT CAVOK 37/11 Q1008 NOSIG
Conditions at: HSSS (KHARTOUM (CIV/MI, SD) observed 1500 UTC 17 October 2019
Temperature: 37.0°C (99°F)
Dewpoint: 11.0°C (52°F) [RH = 21%]
Pressure (altimeter): 29.76 inches Hg (1008.0 mb)
Winds: from the SSE (160 degrees) at 8 MPH (7 knots; 3.6 m/s)
Visibility: 6 or more miles (10+ km)
Ceiling: ceiling and visibility are OK
Clouds: unknown
Weather: no significant weather observed at this time

METAR text: HSSS 171430Z 16008KT 9999 FEW050 37/11 Q1008 NOSIG
Conditions at: HSSS (KHARTOUM (CIV/MI, SD) observed 1430 UTC 17 October 2019
Temperature: 37.0°C (99°F)
Dewpoint: 11.0°C (52°F) [RH = 21%]
Pressure (altimeter): 29.76 inches Hg (1008.0 mb)
Winds: from the SSE (160 degrees) at 9 MPH (8 knots; 4.1 m/s)
Visibility: 6 or more miles (10+ km)
Ceiling: at least 12,000 feet AGL
Clouds: few clouds at 5000 feet AGL
Weather: no significant weather observed at this time

METAR text: HSSS 171400Z 12008KT 9999 FEW050 37/12 Q1008 NOSIG
Conditions at: HSSS (KHARTOUM (CIV/MI, SD) observed 1400 UTC 17 October 2019
Temperature: 37.0°C (99°F)
Dewpoint: 12.0°C (54°F) [RH = 22%]
Pressure (altimeter): 29.76 inches Hg (1008.0 mb)
Winds: from the ESE (120 degrees) at 9 MPH (8 knots; 4.1 m/s)
Visibility: 6 or more miles (10+ km)
Ceiling: at least 12,000 feet AGL
Clouds: few clouds at 5000 feet AGL
Weather: no significant weather observed at this time

METAR text: HSSS 171330Z 15005KT 9999 FEW050 38/11 Q1008 NOSIG
Conditions at: HSSS (KHARTOUM (CIV/MI, SD) observed 1330 UTC 17 October 2019
Temperature: 38.0°C (100°F)
Dewpoint: 11.0°C (52°F) [RH = 20%]
Pressure (altimeter): 29.76 inches Hg (1008.0 mb)
Winds: from the SSE (150 degrees) at 6 MPH (5 knots; 2.6 m/s)
Visibility: 6 or more miles (10+ km)
Ceiling: at least 12,000 feet AGL
Clouds: few clouds at 5000 feet AGL
Weather: no significant weather observed at this time

METAR text: HSSS 171300Z 15 X7KT 9999 FEW050 38/11 Q1008 NOSIG
Conditions at: HSSS (KHARTOUM (CIV/MI, SD) observed 1300 UTC 17 October 2019
Temperature: 38.0°C (100°F)
Dewpoint: 11.0°C (52°F) [RH = 20%]
Pressure (altimeter): 29.76 inches Hg (1008.0 mb)
Winds: missing
Visibility: 6 or more miles (10+ km)
Ceiling: at least 12,000 feet AGL
Clouds: few clouds at 5000 feet AGL
Weather: no significant weather observed at this time

METAR text: HSSS 171230Z 15007KT 9999 FEW050 38/11 Q1008 NOSIG
Conditions at: HSSS (KHARTOUM (CIV/MI, SD) observed 1230 UTC 17 October 2019
Temperature: 38.0°C (100°F)
Dewpoint: 11.0°C (52°F) [RH = 20%]
Pressure (altimeter): 29.76 inches Hg (1008.0 mb)
Winds: from the SSE (150 degrees) at 8 MPH (7 knots; 3.6 m/s)
Visibility: 6 or more miles (10+ km)
Ceiling: at least 12,000 feet AGL
Clouds: few clouds at 5000 feet AGL
Weather: no significant weather observed at this time

Forecast for: HSSS (KHARTOUM (CIV/MI, SD)
Text: TAF HSSS 182300Z 1900/2006 VRB03KT CAVOK
Forecast period: 0000 UTC 19 October 2019 to 0600 UTC 20 October 2019
Forecast type: FROM: standard forecast or significant change
Winds: variable direction winds at 3 MPH (3 knots; 1.5 m/s)
Visibility: 6 or more miles 10+ km)
Ceiling: unknown
Clouds: missing
Weather: NSW  (no significant weather)
Text: TEMPO 1900/1909 6000 18009KT
Forecast period: 0000 to 0900 UTC 19 October 2019
Forecast type: TEMPORARY: The following changes expected for less than half the time period
Winds: from the S (180 degrees) at 10 MPH (9 knots; 4.6 m/s)
Visibility: 4 miles (6 km)
Ceiling: unknown
Clouds: missing
Weather: no significant weather forecast for this period
Text: TEMPO 1912/1919 9999 FEW040 SCT140
Forecast period: 1200 to 1900 UTC 19 October 2019
Forecast type: TEMPORARY: The following changes expected for less than half the time period
Visibility: 6 or more miles 10+ km)
Ceiling: at least 12,000 feet AGL
Clouds: few clouds at 4000 feet AGL
scattered clouds at 14000 feet AGL
Weather: no significant weather forecast for this period